Time;durP1;ratioP1;P1;durP2;ratioP2;P2;SDS_P1;SDS_P2;PMS_P1;PMS_P2;Temp;Humidity;BMP_temperature;BMP_pressure;BME280_temperature;BME280_humidity;BME280_pressure;Samples;Min_cycle;Max_cycle;Signal;HPM_P1;HPM_P2
2023/07/26 00:02:09;;;;;;;1.58;1.20;;;19.20;82.10;;;;;;4995635;28;20026;-72
2023/07/26 00:04:35;;;;;;;1.05;0.90;;;19.20;82.20;;;;;;4994460;28;20031;-72
2023/07/26 00:07:00;;;;;;;1.73;1.10;;;19.10;82.40;;;;;;4994956;28;20046;-72
2023/07/26 00:09:26;;;;;;;3.78;1.10;;;19.10;82.90;;;;;;4995279;28;20482;-72
2023/07/26 00:11:51;;;;;;;1.35;1.10;;;19.10;82.30;;;;;;5010671;28;20030;-73
2023/07/26 00:14:17;;;;;;;2.42;1.10;;;19.10;82.80;;;;;;5014646;28;20061;-72
2023/07/26 00:16:43;;;;;;;2.60;1.23;;;19.10;82.90;;;;;;5014490;28;20049;-73
2023/07/26 00:19:09;;;;;;;1.95;1.20;;;19.00;82.90;;;;;;5014805;28;20033;-73
2023/07/26 00:21:34;;;;;;;1.27;1.00;;;19.00;83.10;;;;;;4997150;28;20025;-72
2023/07/26 00:24:01;;;;;;;1.83;1.00;;;19.00;83.20;;;;;;5014312;28;20026;-72
2023/07/26 00:26:26;;;;;;;1.40;1.05;;;19.00;83.20;;;;;;5014591;28;20030;-72
2023/07/26 00:28:52;;;;;;;2.72;1.02;;;18.90;83.50;;;;;;5014186;28;20026;-72
2023/07/26 00:31:18;;;;;;;1.20;0.93;;;19.00;83.40;;;;;;5014785;28;20482;-71
2023/07/26 00:33:43;;;;;;;1.30;1.10;;;19.00;83.40;;;;;;5013811;28;20053;-72
2023/07/26 00:36:09;;;;;;;1.88;1.20;;;19.00;83.50;;;;;;5014638;28;20026;-72
2023/07/26 00:38:35;;;;;;;1.52;1.38;;;18.90;83.80;;;;;;5014427;28;20308;-71
2023/07/26 00:41:00;;;;;;;2.50;1.00;;;18.90;83.90;;;;;;5008483;28;20034;-71
2023/07/26 00:43:26;;;;;;;2.25;1.20;;;18.80;84.20;;;;;;4994777;28;20031;-72
2023/07/26 00:45:53;;;;;;;2.88;1.05;;;18.80;84.20;;;;;;4994067;28;20041;-72
2023/07/26 00:48:19;;;;;;;1.30;0.93;;;18.80;84.60;;;;;;4994741;28;20018;-73
2023/07/26 00:50:47;;;;;;;2.05;1.20;;;18.70;84.70;;;;;;4993922;28;20101;-73
2023/07/26 00:53:14;;;;;;;1.77;1.00;;;18.70;85.70;;;;;;4994307;28;20030;-72
2023/07/26 00:55:42;;;;;;;1.40;1.08;;;18.70;85.20;;;;;;4994645;28;20041;-72
2023/07/26 00:58:09;;;;;;;2.15;1.17;;;18.70;85.60;;;;;;4994709;28;20058;-72
2023/07/26 01:00:37;;;;;;;2.72;0.98;;;18.70;86.00;;;;;;4994253;28;20387;-72
2023/07/26 01:03:03;;;;;;;1.55;1.17;;;18.70;86.20;;;;;;4993970;28;20041;-72
2023/07/26 01:05:37;;;;;;;2.10;1.40;;;18.60;86.30;;;;;;4993774;28;20042;-72
2023/07/26 01:08:09;;;;;;;1.75;1.17;;;18.60;86.90;;;;;;4994168;28;20034;-73
2023/07/26 01:10:37;;;;;;;1.55;0.95;;;18.60;87.20;;;;;;4995850;28;20030;-72
2023/07/26 01:13:20;;;;;;;1.13;1.00;;;18.60;87.60;;;;;;4997033;28;20046;-72
2023/07/26 01:15:48;;;;;;;2.67;1.42;;;18.50;88.00;;;;;;4995981;28;20498;-73
2023/07/26 01:18:16;;;;;;;2.42;1.25;;;18.50;88.30;;;;;;4994597;28;20391;-72
2023/07/26 01:20:42;;;;;;;1.75;1.27;;;18.50;88.70;;;;;;4993952;28;20423;-72
2023/07/26 01:23:08;;;;;;;1.65;1.20;;;18.50;88.90;;;;;;4993671;28;20034;-73
2023/07/26 01:25:34;;;;;;;1.75;1.40;;;18.50;89.00;;;;;;4994554;28;20030;-72
2023/07/26 01:28:00;;;;;;;1.95;1.40;;;18.50;89.50;;;;;;4994257;28;20459;-72
2023/07/26 01:30:31;;;;;;;2.42;1.48;;;18.50;89.60;;;;;;4994210;28;20034;-72
2023/07/26 01:33:03;;;;;;;3.53;1.60;;;18.50;89.90;;;;;;4993576;28;20371;-73
2023/07/26 01:35:30;;;;;;;3.50;1.25;;;18.50;90.00;;;;;;4993890;28;20034;-72
2023/07/26 01:37:57;;;;;;;2.40;1.60;;;18.50;90.10;;;;;;4993812;28;20030;-72
2023/07/26 01:40:23;;;;;;;2.55;1.30;;;18.50;90.10;;;;;;4995929;28;20530;-73
2023/07/26 01:42:49;;;;;;;2.35;1.35;;;18.50;90.10;;;;;;4993334;28;20030;-73
2023/07/26 01:45:15;;;;;;;1.63;1.10;;;18.50;90.10;;;;;;4993535;28;20041;-72
2023/07/26 01:47:41;;;;;;;1.73;1.00;;;18.50;90.10;;;;;;4993354;28;20038;-71
2023/07/26 01:50:07;;;;;;;1.85;1.58;;;18.50;90.10;;;;;;4975552;28;20036;-71
2023/07/26 01:52:33;;;;;;;1.30;1.08;;;18.50;90.20;;;;;;4993173;28;20033;-72
2023/07/26 01:54:59;;;;;;;2.40;1.20;;;18.50;90.20;;;;;;4992997;28;20030;-73
2023/07/26 01:57:26;;;;;;;2.05;1.20;;;18.50;90.00;;;;;;4993592;28;20034;-73
2023/07/26 01:59:52;;;;;;;1.55;1.13;;;18.50;89.90;;;;;;4993173;28;20356;-74
2023/07/26 02:02:18;;;;;;;1.73;1.30;;;18.50;90.00;;;;;;4976031;28;20463;-72
2023/07/26 02:04:44;;;;;;;1.65;1.20;;;18.50;90.00;;;;;;4975987;28;20033;-73
2023/07/26 02:07:10;;;;;;;2.10;1.00;;;18.50;89.60;;;;;;4992930;28;20085;-72
2023/07/26 02:09:36;;;;;;;5.85;1.60;;;18.60;89.50;;;;;;4993737;28;20451;-72
2023/07/26 02:12:02;;;;;;;1.95;1.20;;;18.50;89.50;;;;;;4992973;28;20034;-73
2023/07/26 02:14:27;;;;;;;1.95;1.25;;;18.50;89.70;;;;;;4993296;28;20376;-72
2023/07/26 02:16:53;;;;;;;2.25;1.30;;;18.50;89.80;;;;;;4994197;28;20027;-73
2023/07/26 02:19:19;;;;;;;2.33;1.10;;;18.50;89.60;;;;;;5012738;28;20053;-73
2023/07/26 02:21:44;;;;;;;1.75;1.50;;;18.50;89.30;;;;;;5013173;28;20030;-72
2023/07/26 02:24:10;;;;;;;3.05;1.25;;;18.50;89.40;;;;;;5012100;28;20026;-72
2023/07/26 02:26:36;;;;;;;1.10;1.00;;;18.50;89.30;;;;;;5012883;28;20040;-73
2023/07/26 02:29:01;;;;;;;1.23;1.05;;;18.50;89.60;;;;;;5016495;28;20458;-72
2023/07/26 02:31:27;;;;;;;1.77;1.08;;;18.50;89.40;;;;;;5017060;28;20028;-72
2023/07/26 02:33:52;;;;;;;1.92;1.10;;;18.50;89.60;;;;;;5015102;28;20029;-73
2023/07/26 02:36:18;;;;;;;2.05;1.33;;;18.50;89.50;;;;;;5016858;28;20065;-72
2023/07/26 02:38:43;;;;;;;3.53;1.35;;;18.50;89.50;;;;;;5008139;28;20041;-72
2023/07/26 02:41:09;;;;;;;1.77;1.50;;;18.50;89.80;;;;;;4996728;28;20027;-72
2023/07/26 02:43:35;;;;;;;2.10;1.20;;;18.50;89.60;;;;;;4996787;28;20038;-72
2023/07/26 02:46:00;;;;;;;2.03;1.30;;;18.50;90.00;;;;;;4978925;28;20067;-72
2023/07/26 02:48:27;;;;;;;1.50;1.13;;;18.40;90.20;;;;;;4996945;28;20102;-72
2023/07/26 02:50:52;;;;;;;1.73;1.40;;;18.40;90.30;;;;;;4996197;28;20065;-73
2023/07/26 02:53:18;;;;;;;1.75;1.20;;;18.30;90.30;;;;;;4997126;28;20057;-72
2023/07/26 02:55:43;;;;;;;2.03;1.35;;;18.40;90.60;;;;;;4996805;28;20030;-73
2023/07/26 02:58:10;;;;;;;1.83;1.30;;;18.30;90.50;;;;;;4996302;28;20117;-72
2023/07/26 03:00:36;;;;;;;4.05;1.60;;;18.30;90.90;;;;;;4996545;28;20057;-72
2023/07/26 03:03:01;;;;;;;2.70;1.65;;;18.30;91.30;;;;;;4978388;28;20065;-73
2023/07/26 03:05:28;;;;;;;2.97;1.50;;;18.30;91.70;;;;;;4996371;28;20137;-73
2023/07/26 03:07:53;;;;;;;2.53;1.45;;;18.20;92.10;;;;;;4996075;28;20498;-73
2023/07/26 03:10:19;;;;;;;2.30;1.60;;;18.10;92.70;;;;;;4996558;28;20022;-73
2023/07/26 03:12:45;;;;;;;3.08;1.75;;;18.10;92.90;;;;;;4996336;28;20039;-73
2023/07/26 03:15:11;;;;;;;1.60;1.48;;;18.00;93.20;;;;;;4995811;28;20034;-73
2023/07/26 03:17:36;;;;;;;2.97;1.90;;;18.00;93.90;;;;;;4996390;28;20031;-72
2023/07/26 03:20:03;;;;;;;2.47;2.00;;;18.00;94.20;;;;;;4995999;28;20485;-74
2023/07/26 03:22:29;;;;;;;3.15;1.80;;;18.00;94.20;;;;;;4996534;28;20037;-74
2023/07/26 03:24:54;;;;;;;2.45;2.03;;;17.90;93.70;;;;;;4995876;28;20034;-72
2023/07/26 03:27:20;;;;;;;3.33;1.90;;;17.90;94.10;;;;;;4996668;28;20053;-73
2023/07/26 03:29:45;;;;;;;1.80;1.70;;;17.90;94.20;;;;;;4996206;28;20030;-73
2023/07/26 03:32:12;;;;;;;4.20;1.73;;;17.90;93.70;;;;;;4995442;28;20057;-73
2023/07/26 03:34:37;;;;;;;1.80;1.70;;;17.80;93.80;;;;;;4998464;28;20040;-73
2023/07/26 03:37:03;;;;;;;3.03;1.85;;;17.80;94.40;;;;;;4995414;28;20035;-73
2023/07/26 03:39:29;;;;;;;2.20;1.60;;;17.90;94.80;;;;;;4994636;28;20034;-73
2023/07/26 03:41:55;;;;;;;2.72;1.80;;;17.90;95.00;;;;;;4995289;28;20383;-74
2023/07/26 03:44:20;;;;;;;3.22;1.70;;;17.80;95.70;;;;;;4995935;28;20027;-73
2023/07/26 03:46:46;;;;;;;2.65;1.98;;;17.80;95.90;;;;;;4995615;28;20109;-73
2023/07/26 03:49:12;;;;;;;2.70;1.60;;;17.80;96.00;;;;;;4995280;28;20038;-73
2023/07/26 03:51:37;;;;;;;1.73;1.50;;;17.80;96.30;;;;;;4978330;28;20084;-73
2023/07/26 03:54:03;;;;;;;3.42;1.85;;;17.80;96.70;;;;;;4977901;28;20027;-73
2023/07/26 03:56:29;;;;;;;2.72;1.73;;;17.70;96.90;;;;;;4995694;28;20164;-73
2023/07/26 03:58:54;;;;;;;4.15;1.90;;;17.70;97.70;;;;;;4995311;28;20031;-73
2023/07/26 04:01:20;;;;;;;2.58;1.30;;;17.70;97.90;;;;;;4995262;28;20506;-73
2023/07/26 04:03:46;;;;;;;4.20;1.98;;;17.60;98.80;;;;;;4995268;28;20518;-73
2023/07/26 04:06:12;;;;;;;3.63;1.52;;;17.50;99.60;;;;;;4994643;28;20054;-73
2023/07/26 04:08:39;;;;;;;1.98;1.15;;;17.50;99.90;;;;;;4995216;28;20034;-73
2023/07/26 04:11:05;;;;;;;1.60;1.45;;;17.50;99.90;;;;;;4995091;28;20031;-74
2023/07/26 04:13:31;;;;;;;3.53;1.48;;;17.40;99.90;;;;;;4978015;28;20023;-73
2023/07/26 04:15:57;;;;;;;2.35;1.33;;;17.30;99.90;;;;;;4995287;28;20061;-74
2023/07/26 04:18:22;;;;;;;4.30;1.63;;;17.30;99.90;;;;;;4977922;28;20027;-73
2023/07/26 04:20:48;;;;;;;2.78;1.50;;;17.10;99.90;;;;;;4994931;28;20085;-73
2023/07/26 04:23:13;;;;;;;3.85;1.27;;;17.10;99.90;;;;;;4999335;28;20033;-74
2023/07/26 04:25:39;;;;;;;1.75;1.30;;;17.10;99.90;;;;;;5014812;28;20105;-73
2023/07/26 04:28:06;;;;;;;1.48;1.30;;;17.00;99.90;;;;;;5013107;28;20041;-73
2023/07/26 04:30:31;;;;;;;1.98;1.42;;;17.00;99.90;;;;;;5014677;28;20031;-73
2023/07/26 04:32:57;;;;;;;2.85;1.77;;;16.90;99.90;;;;;;5014501;28;20030;-75
2023/07/26 04:35:22;;;;;;;2.13;1.40;;;16.90;99.90;;;;;;5014654;28;20064;-73
2023/07/26 04:37:48;;;;;;;1.83;1.45;;;16.90;99.90;;;;;;5007164;28;20038;-73
2023/07/26 04:40:14;;;;;;;2.17;1.60;;;16.80;99.90;;;;;;4977219;28;20022;-73
2023/07/26 04:42:39;;;;;;;3.50;1.65;;;16.80;99.90;;;;;;4995158;28;20412;-73
2023/07/26 04:45:05;;;;;;;3.05;1.63;;;16.80;99.90;;;;;;4994271;28;20038;-74
2023/07/26 04:47:33;;;;;;;1.92;1.60;;;16.80;99.90;;;;;;4994750;28;20027;-73
2023/07/26 04:49:58;;;;;;;2.80;1.70;;;16.80;99.90;;;;;;4993798;28;20026;-75
2023/07/26 04:52:24;;;;;;;2.20;1.63;;;16.80;99.90;;;;;;4994680;28;20030;-73
2023/07/26 04:54:50;;;;;;;3.35;1.50;;;16.80;99.90;;;;;;4994840;28;20371;-73
2023/07/26 04:57:15;;;;;;;2.25;1.52;;;16.80;99.90;;;;;;4994138;28;20092;-73
2023/07/26 04:59:41;;;;;;;4.68;1.30;;;16.80;99.90;;;;;;4994240;28;20105;-73
2023/07/26 05:02:06;;;;;;;2.15;1.30;;;16.70;99.90;;;;;;4994340;28;20027;-74
2023/07/26 05:04:32;;;;;;;2.60;1.20;;;16.70;99.90;;;;;;4994291;28;20029;-73
2023/07/26 05:06:58;;;;;;;1.40;1.30;;;16.70;99.90;;;;;;4993965;28;20061;-73
2023/07/26 05:09:23;;;;;;;1.30;1.20;;;16.60;99.90;;;;;;4993957;28;20034;-73
2023/07/26 05:11:49;;;;;;;0.98;0.95;;;16.70;99.90;;;;;;4994248;28;20029;-73
2023/07/26 05:14:14;;;;;;;2.67;1.25;;;16.70;99.90;;;;;;4994177;28;20375;-73
2023/07/26 05:16:40;;;;;;;1.70;0.90;;;16.70;99.90;;;;;;4994271;28;20034;-73
2023/07/26 05:19:06;;;;;;;1.67;1.05;;;16.70;99.90;;;;;;4976448;28;20081;-73
2023/07/26 05:21:31;;;;;;;1.85;1.00;;;16.70;99.90;;;;;;4994011;28;20430;-73
2023/07/26 05:23:57;;;;;;;2.08;0.80;;;16.70;99.90;;;;;;4994155;28;20445;-74
2023/07/26 05:26:23;;;;;;;1.48;1.08;;;16.70;99.90;;;;;;4995835;28;20101;-73
2023/07/26 05:28:48;;;;;;;1.35;1.25;;;16.70;99.90;;;;;;4994066;28;20031;-73
2023/07/26 05:31:14;;;;;;;1.30;1.00;;;16.70;99.90;;;;;;4993612;28;20026;-73
2023/07/26 05:33:39;;;;;;;1.35;0.95;;;16.80;99.90;;;;;;4993872;28;20030;-73
2023/07/26 05:36:06;;;;;;;2.90;1.10;;;16.70;99.90;;;;;;4993584;28;20471;-73
2023/07/26 05:38:31;;;;;;;0.93;0.93;;;16.70;99.90;;;;;;4993851;28;20447;-73
2023/07/26 05:41:04;;;;;;;1.33;1.00;;;16.60;99.90;;;;;;4994133;28;20058;-73
2023/07/26 05:43:30;;;;;;;1.83;1.00;;;16.60;99.90;;;;;;4993738;28;20062;-73
2023/07/26 05:45:56;;;;;;;1.48;1.05;;;16.60;99.90;;;;;;4993784;28;20582;-73
2023/07/26 05:48:21;;;;;;;1.73;0.90;;;16.70;99.90;;;;;;4993047;28;20026;-73
2023/07/26 05:50:48;;;;;;;1.77;1.00;;;16.70;99.90;;;;;;4993734;28;20101;-73
2023/07/26 05:53:14;;;;;;;3.35;1.10;;;16.70;99.90;;;;;;4993312;28;20113;-74
2023/07/26 05:55:40;;;;;;;1.30;1.20;;;16.70;99.90;;;;;;4993944;28;20030;-73
2023/07/26 05:58:05;;;;;;;1.92;1.13;;;16.70;99.90;;;;;;4993315;28;20037;-74
2023/07/26 06:00:31;;;;;;;2.30;1.30;;;16.60;99.90;;;;;;4993588;28;20035;-74
2023/07/26 06:02:57;;;;;;;1.83;1.10;;;16.60;99.90;;;;;;4992434;28;20466;-72
2023/07/26 06:05:23;;;;;;;2.75;1.33;;;16.60;99.90;;;;;;4992918;28;20034;-73
2023/07/26 06:07:49;;;;;;;3.53;0.90;;;16.60;99.90;;;;;;4993017;28;20061;-72
2023/07/26 06:10:15;;;;;;;3.88;1.10;;;16.60;99.90;;;;;;4993116;28;20080;-72
2023/07/26 06:12:41;;;;;;;2.97;1.50;;;16.60;99.90;;;;;;4993042;28;20038;-73
2023/07/26 06:15:07;;;;;;;1.50;1.10;;;16.60;99.90;;;;;;4993026;28;20041;-74
2023/07/26 06:17:33;;;;;;;1.63;1.23;;;16.50;99.90;;;;;;4993527;28;20118;-72
2023/07/26 06:19:59;;;;;;;1.27;1.15;;;16.50;99.90;;;;;;4993314;28;20026;-72
2023/07/26 06:22:25;;;;;;;1.45;1.10;;;16.50;99.90;;;;;;4996670;28;20033;-72
2023/07/26 06:24:50;;;;;;;2.30;1.20;;;16.50;99.90;;;;;;5013051;28;20028;-74
2023/07/26 06:27:22;;;;;;;2.00;1.23;;;16.50;99.90;;;;;;5012426;28;20386;-73
2023/07/26 06:29:48;;;;;;;5.28;1.35;;;16.50;99.90;;;;;;4979255;28;20034;-73
2023/07/26 06:32:14;;;;;;;1.38;1.10;;;16.50;99.90;;;;;;5012514;28;20467;-73
2023/07/26 06:34:39;;;;;;;2.33;1.10;;;16.50;99.90;;;;;;5013052;28;20320;-73
2023/07/26 06:37:05;;;;;;;2.15;1.30;;;16.50;99.90;;;;;;5011494;28;20036;-73
2023/07/26 06:39:30;;;;;;;1.38;1.10;;;16.50;99.90;;;;;;5012379;28;20484;-73
2023/07/26 06:41:56;;;;;;;2.38;1.23;;;16.50;99.90;;;;;;5012478;28;20068;-73
2023/07/26 06:44:22;;;;;;;2.33;1.50;;;16.50;99.90;;;;;;4994705;28;20037;-73
2023/07/26 06:46:47;;;;;;;2.90;1.40;;;16.50;99.90;;;;;;5000385;28;20038;-74
2023/07/26 06:49:13;;;;;;;4.22;1.38;;;16.50;99.90;;;;;;4992739;28;20030;-73
2023/07/26 06:51:38;;;;;;;2.22;1.50;;;16.50;99.90;;;;;;4993090;28;20027;-73
2023/07/26 06:54:04;;;;;;;2.95;1.67;;;16.60;99.90;;;;;;4992768;28;20026;-73
2023/07/26 06:56:29;;;;;;;2.58;1.70;;;16.60;99.90;;;;;;4992604;28;20026;-73
2023/07/26 06:58:55;;;;;;;1.52;1.42;;;16.60;99.90;;;;;;4993079;28;20471;-73
2023/07/26 07:01:21;;;;;;;1.67;1.20;;;16.60;99.90;;;;;;4992330;28;20022;-73
2023/07/26 07:03:46;;;;;;;1.95;1.52;;;16.60;99.90;;;;;;4992657;28;20072;-74
2023/07/26 07:06:14;;;;;;;2.08;1.45;;;16.70;99.90;;;;;;4974792;28;20125;-74
2023/07/26 07:08:40;;;;;;;2.33;1.67;;;16.70;99.90;;;;;;4992645;28;20030;-74
2023/07/26 07:11:06;;;;;;;1.55;1.45;;;16.80;99.90;;;;;;4992870;28;20566;-72
2023/07/26 07:13:36;;;;;;;2.78;1.40;;;16.80;99.90;;;;;;4993805;28;20097;-72
2023/07/26 07:16:03;;;;;;;2.20;1.15;;;16.90;99.90;;;;;;4996379;28;20122;-71
2023/07/26 07:18:30;;;;;;;1.35;1.23;;;17.00;99.90;;;;;;4996149;28;20076;-74
2023/07/26 07:20:57;;;;;;;1.33;0.90;;;17.00;99.90;;;;;;4979364;28;20038;-73
2023/07/26 07:23:24;;;;;;;2.65;1.00;;;17.20;99.90;;;;;;4997198;28;20482;-72
2023/07/26 07:25:50;;;;;;;3.30;1.38;;;17.20;99.90;;;;;;4996264;28;20455;-73
2023/07/26 07:28:16;;;;;;;3.08;1.40;;;17.30;99.90;;;;;;4996762;28;20065;-73
2023/07/26 07:30:41;;;;;;;1.52;1.10;;;17.40;99.90;;;;;;4997591;28;20035;-73
2023/07/26 07:33:07;;;;;;;4.60;1.20;;;17.40;99.90;;;;;;4997369;28;20030;-73
2023/07/26 07:35:33;;;;;;;2.83;1.42;;;17.50;99.10;;;;;;4978870;28;20030;-74
2023/07/26 07:37:58;;;;;;;2.42;1.20;;;17.60;99.50;;;;;;4996185;28;20389;-73
2023/07/26 07:40:24;;;;;;;2.65;1.48;;;17.70;99.20;;;;;;4995918;28;20041;-73
2023/07/26 07:42:50;;;;;;;2.05;1.30;;;17.80;98.50;;;;;;4996075;28;20080;-74
2023/07/26 07:45:16;;;;;;;4.18;1.60;;;17.90;97.70;;;;;;4995345;28;20042;-75
2023/07/26 07:47:41;;;;;;;2.30;1.48;;;17.90;97.00;;;;;;4996263;28;20375;-74
2023/07/26 07:50:07;;;;;;;4.30;1.20;;;18.00;96.90;;;;;;4997470;28;20033;-74
2023/07/26 07:52:33;;;;;;;4.40;1.50;;;17.90;96.20;;;;;;4996478;28;20030;-73
2023/07/26 07:54:58;;;;;;;2.35;1.70;;;18.00;96.30;;;;;;4979801;28;20030;-73
2023/07/26 07:57:24;;;;;;;3.55;1.80;;;18.00;96.20;;;;;;4996315;28;20073;-73
2023/07/26 07:59:49;;;;;;;2.03;1.60;;;18.00;95.80;;;;;;4978848;28;20546;-73
2023/07/26 08:02:15;;;;;;;3.20;1.85;;;18.10;95.40;;;;;;4995536;28;20475;-73
2023/07/26 08:04:41;;;;;;;4.10;2.00;;;18.00;94.90;;;;;;4995494;28;20105;-73
2023/07/26 08:07:06;;;;;;;6.63;2.20;;;18.10;95.10;;;;;;4995650;28;20073;-73
2023/07/26 08:09:32;;;;;;;4.47;2.28;;;18.10;95.30;;;;;;4995516;28;20375;-73
2023/07/26 08:11:58;;;;;;;1.90;1.80;;;18.10;94.90;;;;;;4995514;28;20022;-73
2023/07/26 08:14:24;;;;;;;2.85;1.80;;;18.20;95.10;;;;;;4995116;28;20037;-72
2023/07/26 08:16:50;;;;;;;2.95;1.70;;;18.30;94.40;;;;;;5012781;28;20078;-72
2023/07/26 08:19:15;;;;;;;7.00;1.88;;;18.40;92.90;;;;;;4996917;28;20112;-73
2023/07/26 08:21:41;;;;;;;3.20;1.90;;;18.40;93.00;;;;;;5014950;28;20060;-73
2023/07/26 08:24:06;;;;;;;3.15;2.00;;;18.40;92.50;;;;;;5014555;28;20030;-73
2023/07/26 08:26:32;;;;;;;3.72;1.92;;;18.40;92.40;;;;;;5013697;28;20075;-73
2023/07/26 08:28:58;;;;;;;6.68;2.03;;;18.40;92.70;;;;;;5014722;28;20030;-73
2023/07/26 08:31:23;;;;;;;2.88;2.10;;;18.40;92.10;;;;;;5014705;28;20022;-73
2023/07/26 08:33:49;;;;;;;4.85;2.10;;;18.50;92.00;;;;;;5014527;28;20022;-73
2023/07/26 08:36:14;;;;;;;4.60;2.20;;;18.60;91.30;;;;;;5014603;28;20037;-73
2023/07/26 08:38:40;;;;;;;3.78;2.40;;;18.70;91.00;;;;;;5014288;28;20045;-73
2023/07/26 08:41:07;;;;;;;6.07;2.08;;;18.80;90.80;;;;;;5005061;28;20034;-73
2023/07/26 08:43:37;;;;;;;4.28;2.15;;;18.90;90.00;;;;;;4994175;28;20034;-73
2023/07/26 08:46:05;;;;;;;5.68;2.30;;;19.00;90.20;;;;;;4994949;28;20045;-73
2023/07/26 08:48:32;;;;;;;11.00;2.28;;;19.10;89.10;;;;;;4994379;28;20076;-73
2023/07/26 08:51:00;;;;;;;3.00;2.00;;;19.20;88.50;;;;;;4994790;28;20400;-73
2023/07/26 08:53:27;;;;;;;4.55;1.90;;;19.30;87.20;;;;;;4994220;28;20034;-72
2023/07/26 08:55:53;;;;;;;4.53;1.90;;;19.20;85.50;;;;;;4994626;28;20081;-72
2023/07/26 08:58:18;;;;;;;2.70;1.90;;;19.30;86.60;;;;;;4994212;28;20474;-73
2023/07/26 09:00:46;;;;;;;5.60;2.67;;;19.50;86.50;;;;;;4977099;28;20150;-73
2023/07/26 09:03:12;;;;;;;5.38;2.20;;;19.70;85.90;;;;;;4994421;28;20084;-73
2023/07/26 09:05:37;;;;;;;2.70;2.05;;;20.00;85.70;;;;;;4993495;28;20057;-73
2023/07/26 09:08:03;;;;;;;3.70;1.80;;;20.10;83.00;;;;;;4994458;28;20039;-73
2023/07/26 09:10:31;;;;;;;4.82;2.17;;;20.30;84.40;;;;;;4993907;28;20073;-73
2023/07/26 09:13:12;;;;;;;2.90;1.70;;;20.40;81.60;;;;;;4977254;28;20055;-73
2023/07/26 09:15:40;;;;;;;5.55;2.00;;;20.50;78.80;;;;;;4993939;28;20093;-73
2023/07/26 09:18:06;;;;;;;3.08;2.03;;;20.50;79.10;;;;;;4994207;28;20026;-73
2023/07/26 09:20:33;;;;;;;5.03;2.22;;;20.40;76.90;;;;;;4993696;28;20114;-73
2023/07/26 09:23:06;;;;;;;2.50;1.92;;;20.60;78.20;;;;;;4994799;28;20045;-73
2023/07/26 09:25:43;;;;;;;3.90;2.03;;;20.60;76.00;;;;;;4974037;28;20030;-73
2023/07/26 09:28:13;;;;;;;3.50;1.83;;;20.60;76.00;;;;;;4974598;28;20074;-72
2023/07/26 09:30:45;;;;;;;2.78;2.13;;;20.80;76.90;;;;;;4973932;28;20467;-73
2023/07/26 09:33:12;;;;;;;5.32;1.88;;;20.90;75.50;;;;;;4974674;28;20053;-73
2023/07/26 09:35:48;;;;;;;2.47;1.70;;;21.00;75.10;;;;;;4974112;28;20082;-73
2023/07/26 09:38:22;;;;;;;4.72;1.90;;;20.90;74.00;;;;;;4974429;28;20446;-73
2023/07/26 09:40:47;;;;;;;6.20;1.80;;;20.70;74.20;;;;;;4974304;28;20022;-73
2023/07/26 09:43:27;;;;;;;2.58;1.60;;;20.80;75.10;;;;;;4974485;28;20022;-73
2023/07/26 09:45:59;;;;;;;8.95;2.97;;;20.90;75.70;;;;;;4974576;28;20035;-73
2023/07/26 09:48:25;;;;;;;3.38;2.33;;;21.00;73.90;;;;;;4974066;28;20038;-74
2023/07/26 09:50:53;;;;;;;3.55;1.70;;;21.10;73.60;;;;;;4974037;28;20031;-73
2023/07/26 09:53:21;;;;;;;3.53;2.45;;;21.30;72.40;;;;;;4974087;28;20027;-73
2023/07/26 09:55:48;;;;;;;6.25;2.05;;;21.30;70.40;;;;;;4974219;28;20093;-73
2023/07/26 09:58:16;;;;;;;7.68;1.92;;;21.20;71.00;;;;;;4973945;28;20031;-72
2023/07/26 10:00:44;;;;;;;2.28;1.70;;;21.20;70.90;;;;;;4973746;28;20038;-72
2023/07/26 10:03:13;;;;;;;6.13;2.05;;;21.10;71.10;;;;;;4974017;28;20480;-74
2023/07/26 10:05:42;;;;;;;2.72;1.90;;;21.10;71.70;;;;;;4956556;28;20093;-72
2023/07/26 10:08:09;;;;;;;6.50;2.05;;;21.10;70.50;;;;;;4974063;28;20031;-73
2023/07/26 10:10:35;;;;;;;6.70;1.85;;;21.10;70.40;;;;;;4973606;28;20109;-73
2023/07/26 10:13:04;;;;;;;4.63;1.80;;;21.00;70.40;;;;;;4976967;28;20090;-74
2023/07/26 10:15:30;;;;;;;4.60;2.22;;;21.10;70.50;;;;;;5012528;28;20034;-73
2023/07/26 10:17:57;;;;;;;4.00;1.70;;;21.00;69.20;;;;;;5013170;28;20489;-73
2023/07/26 10:20:23;;;;;;;3.83;1.65;;;20.80;70.50;;;;;;5012854;28;20068;-73
2023/07/26 10:22:51;;;;;;;2.65;1.77;;;20.80;72.00;;;;;;5012780;28;20034;-73
2023/07/26 10:25:17;;;;;;;2.78;1.73;;;20.80;71.40;;;;;;5012982;28;20022;-73
2023/07/26 10:27:43;;;;;;;1.88;1.40;;;20.90;70.20;;;;;;5012028;28;20316;-73
2023/07/26 10:30:10;;;;;;;2.95;1.70;;;20.90;69.30;;;;;;5012861;28;20030;-73
2023/07/26 10:32:50;;;;;;;5.60;1.70;;;21.00;69.30;;;;;;5011053;28;20085;-73
2023/07/26 10:35:43;;;;;;;1.93;1.67;;;20.90;68.30;;;;;;5012397;28;20034;-72
2023/07/26 10:38:08;;;;;;;2.75;1.77;;;20.80;68.60;;;;;;4992283;28;20322;-73
2023/07/26 10:40:36;;;;;;;5.85;2.00;;;20.70;69.00;;;;;;5012431;28;20046;-73
2023/07/26 10:43:20;;;;;;;2.45;1.60;;;20.60;69.10;;;;;;5012674;28;20462;-73
2023/07/26 10:45:47;;;;;;;2.67;1.40;;;20.60;68.00;;;;;;5012419;28;20056;-73
2023/07/26 10:48:36;;;;;;;2.50;1.50;;;20.70;68.00;;;;;;5013799;28;20073;-73
2023/07/26 10:51:22;;;;;;;3.45;1.85;;;20.80;65.90;;;;;;5001271;28;20023;-73
2023/07/26 10:53:48;;;;;;;4.70;1.98;;;20.70;66.70;;;;;;4979293;28;20038;-72
2023/07/26 10:56:34;;;;;;;4.28;1.90;;;20.60;68.10;;;;;;4996905;28;20030;-73
2023/07/26 10:59:19;;;;;;;4.85;2.05;;;20.40;69.90;;;;;;4996327;28;20085;-72
2023/07/26 11:01:46;;;;;;;4.55;2.10;;;20.20;70.60;;;;;;4979816;28;20069;-73
2023/07/26 11:04:14;;;;;;;5.40;2.10;;;20.10;71.30;;;;;;4995456;28;20434;-73
2023/07/26 11:06:51;;;;;;;3.67;1.42;;;20.00;72.20;;;;;;4996386;28;20050;-73
2023/07/26 11:09:20;;;;;;;3.92;1.88;;;20.00;72.10;;;;;;4996861;28;20034;-73
2023/07/26 11:11:58;;;;;;;2.50;1.55;;;20.00;71.90;;;;;;4996248;28;20113;-73
2023/07/26 11:14:25;;;;;;;3.05;1.95;;;20.10;70.60;;;;;;4979140;28;20057;-72
2023/07/26 11:16:52;;;;;;;3.72;1.73;;;20.10;70.90;;;;;;4996124;28;20058;-73
2023/07/26 11:19:17;;;;;;;2.83;1.75;;;20.10;70.80;;;;;;4996499;28;20370;-72
2023/07/26 11:21:43;;;;;;;4.30;1.77;;;20.10;71.20;;;;;;4995870;28;20109;-73
2023/07/26 11:24:09;;;;;;;4.53;1.70;;;20.10;71.20;;;;;;4998718;28;20382;-72
2023/07/26 11:26:46;;;;;;;5.70;1.80;;;20.00;71.40;;;;;;4995832;28;20451;-73
2023/07/26 11:29:13;;;;;;;3.78;1.50;;;20.00;71.50;;;;;;4996354;28;20049;-73
2023/07/26 11:31:39;;;;;;;2.67;1.58;;;20.00;71.60;;;;;;4995570;28;20026;-72
2023/07/26 11:34:19;;;;;;;2.55;1.50;;;19.90;70.40;;;;;;4978988;28;20030;-73
2023/07/26 11:36:45;;;;;;;3.15;1.50;;;19.90;72.00;;;;;;4995715;28;20129;-73
2023/07/26 11:39:22;;;;;;;3.38;1.50;;;19.80;71.50;;;;;;4995882;28;20027;-72
2023/07/26 11:41:49;;;;;;;3.03;1.92;;;19.80;72.70;;;;;;4995755;28;20113;-72
2023/07/26 11:44:15;;;;;;;5.03;1.80;;;19.70;76.40;;;;;;4996010;28;20033;-72
2023/07/26 11:46:43;;;;;;;2.60;2.20;;;19.70;76.60;;;;;;4995236;28;20391;-74
2023/07/26 11:49:26;;;;;;;4.38;2.20;;;19.70;76.80;;;;;;4995753;28;20034;-73
2023/07/26 11:51:52;;;;;;;7.15;2.22;;;19.70;80.90;;;;;;4995329;28;20045;-73
2023/07/26 11:54:18;;;;;;;5.60;2.30;;;19.60;83.30;;;;;;4996102;28;20530;-73
2023/07/26 11:56:45;;;;;;;9.32;2.30;;;19.60;86.00;;;;;;4995497;28;20026;-73
2023/07/26 11:59:11;;;;;;;4.65;2.22;;;19.50;90.00;;;;;;4994974;28;20363;-72
2023/07/26 12:01:38;;;;;;;7.60;2.17;;;19.50;89.70;;;;;;4977508;28;20081;-73
2023/07/26 12:04:15;;;;;;;3.72;2.58;;;19.50;90.10;;;;;;4995332;28;20037;-72
2023/07/26 12:06:44;;;;;;;4.30;2.05;;;19.50;88.90;;;;;;4995117;28;20061;-72
2023/07/26 12:09:10;;;;;;;4.60;1.50;;;19.50;88.40;;;;;;4995446;28;20056;-72
2023/07/26 12:11:37;;;;;;;3.58;2.17;;;19.40;86.40;;;;;;4995161;28;20066;-73
2023/07/26 12:14:03;;;;;;;6.22;2.35;;;19.50;87.20;;;;;;4995394;28;20038;-73
2023/07/26 12:16:30;;;;;;;4.97;1.88;;;19.60;88.30;;;;;;5013454;28;20105;-73
2023/07/26 12:19:00;;;;;;;4.93;1.88;;;19.60;84.90;;;;;;5014772;28;20026;-73
2023/07/26 12:21:26;;;;;;;3.20;1.80;;;19.70;82.50;;;;;;4999711;28;20038;-72
2023/07/26 12:23:55;;;;;;;4.65;1.92;;;19.80;84.30;;;;;;4994687;28;20034;-72
2023/07/26 12:26:29;;;;;;;6.43;1.67;;;19.90;85.80;;;;;;4994765;28;20030;-73
2023/07/26 12:28:55;;;;;;;5.07;1.70;;;20.00;82.10;;;;;;4977111;28;20069;-72
2023/07/26 12:31:23;;;;;;;2.15;1.30;;;20.00;81.40;;;;;;4995116;28;20026;-73
2023/07/26 12:34:08;;;;;;;2.13;1.20;;;20.00;81.00;;;;;;4994586;28;20042;-73
2023/07/26 12:36:37;;;;;;;3.75;0.90;;;19.90;78.00;;;;;;4994652;28;20375;-74
2023/07/26 12:39:07;;;;;;;2.25;0.95;;;19.90;77.30;;;;;;4994477;28;20034;-73
2023/07/26 12:41:34;;;;;;;3.35;1.00;;;19.90;75.50;;;;;;4994732;28;20023;-74
2023/07/26 12:43:59;;;;;;;2.20;0.98;;;19.90;75.90;;;;;;4994756;28;20523;-74
2023/07/26 12:46:25;;;;;;;1.90;0.80;;;19.90;73.40;;;;;;4994561;28;20177;-72
2023/07/26 12:48:56;;;;;;;4.35;0.70;;;19.90;71.00;;;;;;4994234;28;20041;-73